METAR-Meldungen aus der Umgebung


Warning: A non-numeric value encountered in /homepages/1/d50633195/htdocs/bad-muskau-wetter/weather28/metar/metarDisplay.php on line 168

Warning: A non-numeric value encountered in /homepages/1/d50633195/htdocs/bad-muskau-wetter/weather28/metar/metarDisplay.php on line 168

Warning: A non-numeric value encountered in /homepages/1/d50633195/htdocs/bad-muskau-wetter/weather28/metar/metarDisplay.php on line 168

Warning: A non-numeric value encountered in /homepages/1/d50633195/htdocs/bad-muskau-wetter/weather28/metar/metarDisplay.php on line 168

Warning: A non-numeric value encountered in /homepages/1/d50633195/htdocs/bad-muskau-wetter/weather28/metar/metarDisplay.php on line 168

Warning: A non-numeric value encountered in /homepages/1/d50633195/htdocs/bad-muskau-wetter/weather28/metar/metarDisplay.php on line 168

Warning: A non-numeric value encountered in /homepages/1/d50633195/htdocs/bad-muskau-wetter/weather28/metar/metarDisplay.php on line 168
   
EDDC - Dresden/Klotzsch, Germany
Entfernung von der Station bis: SW 82 km
Aktualisierung: 22-09-2020 05:20
Klar  
Klar  
   Wind: SSO 13 km/h
Wind: SSO 13 km/h
Temperatur: 11°C
Taupunkt: 10°C
Luftfeuchte: 94%
Luftdruck: 1013 hPa
Sichtbarkeit: More than 10 km
Bewölkung: Klar
EDDC 220320Z 16007KT CAVOK 11/10 Q1013
EPZG - Zielona Gora, Poland
Entfernung von der Station bis: NO 99 km
Aktualisierung: 22-09-2020 05:30
Patches of, Nebel, Nebel, Teilweise bewölkt  
Patches of, Nebel, Nebel, Teilweise bewölkt  
   Wind: Windstille
Wind: Windstille
Temperatur: 7°C
Taupunkt: 7°C
Luftfeuchte: 100%
Luftdruck: 1014 hPa
Bewölkt: Teilweise bewölkt
Sichtbarkeit: 5 km
Bewölkung: Teilweise bewölkt
EPZG 220330Z 00000KT 5000 BCFG BR NSC 07/07 Q1014
ETSH - Holzdorf, Germany
Entfernung von der Station bis: WNW 110 km
Aktualisierung: 22-09-2020 05:20
  
  
   Wind: OSO 3.7 km/h
Wind: OSO 3.7 km/h
Temperatur: 8°C
Taupunkt: 8°C
Luftfeuchte: 100%
Luftdruck: 1013 hPa
Sichtbarkeit: More than 10 km
ETSH 220320Z 12002KT 9999 08/08 Q1013 BLU+BLU+
EDDB - Berlin/Schonefel, Germany
Entfernung von der Station bis: NW 124 km
Aktualisierung: 22-09-2020 05:20
Klar  
Klar  
   Wind: Osten 5.6 km/h
Wind: Osten 5.6 km/h
Temperatur: 11°C
Taupunkt: 9°C
Luftfeuchte: 88%
Luftdruck: 1013 hPa
Sichtbarkeit: More than 10 km
Bewölkung: Klar
EDDB 220320Z 08003KT CAVOK 11/09 Q1013 NOSIG
EDDT - Berlin/Tegel (fa, Germany
Entfernung von der Station bis: NW 149 km
Aktualisierung: 22-09-2020 05:20
Klar  
Klar  
   Wind: variiert 3.7 km/h
Wind: variiert 3.7 km/h
Temperatur: 12°C
Taupunkt: 9°C
Luftfeuchte: 82%
Luftdruck: 1012 hPa
Sichtbarkeit: More than 10 km
Bewölkung: Klar
EDDT 220320Z VRB02KT CAVOK 12/09 Q1012 NOSIG
LKVO - Vodochody, Czech Republic
Entfernung von der Station bis: S 149 km
Aktualisierung: 21-09-2020 14:00
Nicht aktuell
Klar  
Klar  
   Wind: Osten 9.3 km/h
Wind: Osten 9.3 km/h
Temperatur: 23°C
Taupunkt: 10°C
Luftfeuchte: 44%
Luftdruck: 1017 hPa
Sichtbarkeit: More than 10 km
Bewölkung: Klar
LKVO 211200Z 08005KT 350V140 CAVOK 23/10 Q1017
EPWR - Wroclaw/Strachow, Poland
Entfernung von der Station bis: OSO 157 km
Aktualisierung: 22-09-2020 05:30
Klar  
Klar  
   Wind: SO 11.1 km/h
Wind: SO 11.1 km/h
Temperatur: 10°C
Gefühlt: 8°C
Taupunkt: 9°C
Luftfeuchte: 94%
Luftdruck: 1015 hPa
Sichtbarkeit: More than 10 km
Bewölkung: Klar
EPWR 220330Z 13006KT CAVOK 10/09 Q1015
LKKB - Kbely, Czech Republic
Entfernung von der Station bis: S 159 km
Aktualisierung: 22-09-2020 05:30
Klar  
Klar  
   Wind: variiert 1.9 km/h
Wind: variiert 1.9 km/h
Temperatur: 11°C
Taupunkt: 8°C
Luftfeuchte: 82%
Luftdruck: 1014 hPa
Sichtbarkeit: More than 10 km
Bewölkung: Klar
LKKB 220330Z VRB01KT CAVOK 11/08 Q1014
 

Script entwickelt von  Saratoga-weather.org Angepasst für das Template von  Weerstation Leuven